sensor_id;sensor_type;location;lat;lon;timestamp;P1;durP1;ratioP1;P2;durP2;ratioP2
19609;SDS011;9952;47.122;-1.638;2024-03-23T00:55:30;17.40;;;2.77;;
19609;SDS011;9952;47.122;-1.638;2024-03-23T01:00:11;16.83;;;2.97;;
19609;SDS011;9952;47.122;-1.638;2024-03-23T01:04:52;12.17;;;2.30;;
19609;SDS011;9952;47.122;-1.638;2024-03-23T01:09:33;16.47;;;2.43;;
19609;SDS011;9952;47.122;-1.638;2024-03-23T01:14:13;11.57;;;2.23;;
19609;SDS011;9952;47.122;-1.638;2024-03-23T01:18:54;18.83;;;2.03;;
19609;SDS011;9952;47.122;-1.638;2024-03-23T01:23:34;17.00;;;2.17;;
19609;SDS011;9952;47.122;-1.638;2024-03-23T01:28:15;11.83;;;2.50;;
19609;SDS011;9952;47.122;-1.638;2024-03-23T01:32:56;14.03;;;2.40;;
19609;SDS011;9952;47.122;-1.638;2024-03-23T01:37:36;18.20;;;2.40;;
19609;SDS011;9952;47.122;-1.638;2024-03-23T01:42:17;11.13;;;2.13;;
19609;SDS011;9952;47.122;-1.638;2024-03-23T01:46:58;11.60;;;2.30;;
19609;SDS011;9952;47.122;-1.638;2024-03-23T01:51:38;14.20;;;1.93;;
19609;SDS011;9952;47.122;-1.638;2024-03-23T01:56:20;20.23;;;2.70;;
19609;SDS011;9952;47.122;-1.638;2024-03-23T02:01:01;11.90;;;2.20;;
19609;SDS011;9952;47.122;-1.638;2024-03-23T02:05:41;19.13;;;2.57;;
19609;SDS011;9952;47.122;-1.638;2024-03-23T02:10:22;12.33;;;2.00;;
19609;SDS011;9952;47.122;-1.638;2024-03-23T02:15:03;13.47;;;2.70;;
19609;SDS011;9952;47.122;-1.638;2024-03-23T02:19:44;14.77;;;3.27;;
19609;SDS011;9952;47.122;-1.638;2024-03-23T02:24:26;14.83;;;2.27;;
19609;SDS011;9952;47.122;-1.638;2024-03-23T02:29:09;17.43;;;2.20;;
19609;SDS011;9952;47.122;-1.638;2024-03-23T02:33:49;17.70;;;2.00;;
19609;SDS011;9952;47.122;-1.638;2024-03-23T02:38:30;14.03;;;2.00;;
19609;SDS011;9952;47.122;-1.638;2024-03-23T02:43:11;12.90;;;1.80;;
19609;SDS011;9952;47.122;-1.638;2024-03-23T02:47:51;12.73;;;1.70;;
19609;SDS011;9952;47.122;-1.638;2024-03-23T02:52:32;11.27;;;2.00;;
19609;SDS011;9952;47.122;-1.638;2024-03-23T02:57:13;11.30;;;2.23;;
19609;SDS011;9952;47.122;-1.638;2024-03-23T03:01:53;10.73;;;1.80;;
19609;SDS011;9952;47.122;-1.638;2024-03-23T03:06:34;13.53;;;1.90;;
19609;SDS011;9952;47.122;-1.638;2024-03-23T03:11:15;14.00;;;1.80;;
19609;SDS011;9952;47.122;-1.638;2024-03-23T03:15:55;14.57;;;2.43;;
19609;SDS011;9952;47.122;-1.638;2024-03-23T03:20:39;11.07;;;1.87;;
19609;SDS011;9952;47.122;-1.638;2024-03-23T03:25:20;15.47;;;2.03;;
19609;SDS011;9952;47.122;-1.638;2024-03-23T03:30:01;12.77;;;1.80;;
19609;SDS011;9952;47.122;-1.638;2024-03-23T03:34:42;14.30;;;2.10;;
19609;SDS011;9952;47.122;-1.638;2024-03-23T03:39:23;8.93;;;1.60;;
19609;SDS011;9952;47.122;-1.638;2024-03-23T03:44:04;12.90;;;1.93;;
19609;SDS011;9952;47.122;-1.638;2024-03-23T03:48:45;21.03;;;1.73;;
19609;SDS011;9952;47.122;-1.638;2024-03-23T03:53:27;16.23;;;1.67;;
19609;SDS011;9952;47.122;-1.638;2024-03-23T03:58:08;9.43;;;1.73;;
19609;SDS011;9952;47.122;-1.638;2024-03-23T04:02:49;14.83;;;1.63;;
19609;SDS011;9952;47.122;-1.638;2024-03-23T04:07:29;13.83;;;1.70;;
19609;SDS011;9952;47.122;-1.638;2024-03-23T04:12:10;15.43;;;1.97;;
19609;SDS011;9952;47.122;-1.638;2024-03-23T04:16:51;13.97;;;2.40;;
19609;SDS011;9952;47.122;-1.638;2024-03-23T04:21:31;10.90;;;1.93;;
19609;SDS011;9952;47.122;-1.638;2024-03-23T04:26:12;13.60;;;2.13;;
19609;SDS011;9952;47.122;-1.638;2024-03-23T04:30:53;15.20;;;2.07;;
19609;SDS011;9952;47.122;-1.638;2024-03-23T04:35:33;13.60;;;2.17;;
19609;SDS011;9952;47.122;-1.638;2024-03-23T04:40:14;14.23;;;2.60;;
19609;SDS011;9952;47.122;-1.638;2024-03-23T04:44:55;13.90;;;1.90;;
19609;SDS011;9952;47.122;-1.638;2024-03-23T04:49:35;17.07;;;2.17;;
19609;SDS011;9952;47.122;-1.638;2024-03-23T04:54:16;14.70;;;2.07;;
19609;SDS011;9952;47.122;-1.638;2024-03-23T04:58:57;12.60;;;1.87;;
19609;SDS011;9952;47.122;-1.638;2024-03-23T05:03:41;22.00;;;2.53;;
19609;SDS011;9952;47.122;-1.638;2024-03-23T05:08:22;17.43;;;1.77;;
19609;SDS011;9952;47.122;-1.638;2024-03-23T05:13:03;12.43;;;1.70;;
19609;SDS011;9952;47.122;-1.638;2024-03-23T05:17:43;14.53;;;2.17;;
19609;SDS011;9952;47.122;-1.638;2024-03-23T05:22:24;10.77;;;1.37;;
19609;SDS011;9952;47.122;-1.638;2024-03-23T05:27:05;12.10;;;1.87;;
19609;SDS011;9952;47.122;-1.638;2024-03-23T05:31:49;16.30;;;1.80;;
19609;SDS011;9952;47.122;-1.638;2024-03-23T05:36:31;12.33;;;1.93;;
19609;SDS011;9952;47.122;-1.638;2024-03-23T05:41:12;11.73;;;1.77;;
19609;SDS011;9952;47.122;-1.638;2024-03-23T05:45:56;13.17;;;2.47;;
19609;SDS011;9952;47.122;-1.638;2024-03-23T05:50:38;19.70;;;2.60;;
19609;SDS011;9952;47.122;-1.638;2024-03-23T05:55:19;17.23;;;1.60;;
19609;SDS011;9952;47.122;-1.638;2024-03-23T05:59:59;22.77;;;12.57;;
19609;SDS011;9952;47.122;-1.638;2024-03-23T06:04:40;13.67;;;2.03;;
19609;SDS011;9952;47.122;-1.638;2024-03-23T06:09:20;11.53;;;1.40;;
19609;SDS011;9952;47.122;-1.638;2024-03-23T06:14:01;8.90;;;2.20;;
19609;SDS011;9952;47.122;-1.638;2024-03-23T06:18:42;9.40;;;1.83;;
19609;SDS011;9952;47.122;-1.638;2024-03-23T06:23:22;12.50;;;1.40;;
19609;SDS011;9952;47.122;-1.638;2024-03-23T06:28:03;13.67;;;1.83;;
19609;SDS011;9952;47.122;-1.638;2024-03-23T06:32:44;8.47;;;1.10;;
19609;SDS011;9952;47.122;-1.638;2024-03-23T06:37:25;14.37;;;1.80;;
19609;SDS011;9952;47.122;-1.638;2024-03-23T06:42:06;10.53;;;1.77;;
19609;SDS011;9952;47.122;-1.638;2024-03-23T06:46:48;13.57;;;2.07;;
19609;SDS011;9952;47.122;-1.638;2024-03-23T06:51:29;9.83;;;1.43;;
19609;SDS011;9952;47.122;-1.638;2024-03-23T06:56:09;13.03;;;2.37;;
19609;SDS011;9952;47.122;-1.638;2024-03-23T07:00:50;8.50;;;1.67;;
19609;SDS011;9952;47.122;-1.638;2024-03-23T07:05:31;14.60;;;1.60;;
19609;SDS011;9952;47.122;-1.638;2024-03-23T07:10:12;7.90;;;1.37;;
19609;SDS011;9952;47.122;-1.638;2024-03-23T07:14:52;11.33;;;1.83;;
19609;SDS011;9952;47.122;-1.638;2024-03-23T07:19:33;9.90;;;1.23;;
19609;SDS011;9952;47.122;-1.638;2024-03-23T07:24:14;10.60;;;1.70;;
19609;SDS011;9952;47.122;-1.638;2024-03-23T07:28:55;10.43;;;1.40;;
19609;SDS011;9952;47.122;-1.638;2024-03-23T07:33:45;11.00;;;1.20;;
19609;SDS011;9952;47.122;-1.638;2024-03-23T07:38:27;9.20;;;1.50;;
19609;SDS011;9952;47.122;-1.638;2024-03-23T07:43:08;6.20;;;1.30;;
19609;SDS011;9952;47.122;-1.638;2024-03-23T07:47:49;10.13;;;1.93;;
19609;SDS011;9952;47.122;-1.638;2024-03-23T07:52:29;13.73;;;1.43;;
19609;SDS011;9952;47.122;-1.638;2024-03-23T07:57:10;11.50;;;1.50;;
19609;SDS011;9952;47.122;-1.638;2024-03-23T08:01:50;8.37;;;1.30;;
19609;SDS011;9952;47.122;-1.638;2024-03-23T08:06:31;5.73;;;0.97;;
19609;SDS011;9952;47.122;-1.638;2024-03-23T08:11:12;14.57;;;1.57;;
19609;SDS011;9952;47.122;-1.638;2024-03-23T08:15:57;10.07;;;1.30;;
19609;SDS011;9952;47.122;-1.638;2024-03-23T08:20:38;8.10;;;1.60;;
19609;SDS011;9952;47.122;-1.638;2024-03-23T08:25:19;6.87;;;1.03;;
19609;SDS011;9952;47.122;-1.638;2024-03-23T08:30:00;5.47;;;1.07;;
19609;SDS011;9952;47.122;-1.638;2024-03-23T08:34:40;7.57;;;1.67;;
19609;SDS011;9952;47.122;-1.638;2024-03-23T08:39:21;11.70;;;1.60;;
19609;SDS011;9952;47.122;-1.638;2024-03-23T08:44:02;9.47;;;1.47;;
19609;SDS011;9952;47.122;-1.638;2024-03-23T08:48:46;14.40;;;1.90;;
19609;SDS011;9952;47.122;-1.638;2024-03-23T08:53:29;13.03;;;1.43;;
19609;SDS011;9952;47.122;-1.638;2024-03-23T08:58:10;14.57;;;1.90;;
19609;SDS011;9952;47.122;-1.638;2024-03-23T09:02:53;17.23;;;1.83;;
19609;SDS011;9952;47.122;-1.638;2024-03-23T09:07:33;13.23;;;1.80;;
19609;SDS011;9952;47.122;-1.638;2024-03-23T09:12:14;10.60;;;1.60;;
19609;SDS011;9952;47.122;-1.638;2024-03-23T09:16:55;8.30;;;1.30;;
19609;SDS011;9952;47.122;-1.638;2024-03-23T09:21:35;8.10;;;1.60;;
19609;SDS011;9952;47.122;-1.638;2024-03-23T09:26:16;15.10;;;1.57;;
19609;SDS011;9952;47.122;-1.638;2024-03-23T09:31:06;6.80;;;1.50;;
19609;SDS011;9952;47.122;-1.638;2024-03-23T09:35:48;9.90;;;1.87;;
19609;SDS011;9952;47.122;-1.638;2024-03-23T09:40:28;8.57;;;1.53;;
19609;SDS011;9952;47.122;-1.638;2024-03-23T09:45:11;10.50;;;1.20;;
19609;SDS011;9952;47.122;-1.638;2024-03-23T09:50:06;10.77;;;1.60;;
19609;SDS011;9952;47.122;-1.638;2024-03-23T09:54:47;6.60;;;1.50;;
19609;SDS011;9952;47.122;-1.638;2024-03-23T09:59:29;9.17;;;2.80;;
19609;SDS011;9952;47.122;-1.638;2024-03-23T10:04:09;10.60;;;1.33;;
19609;SDS011;9952;47.122;-1.638;2024-03-23T10:08:51;8.40;;;1.23;;
19609;SDS011;9952;47.122;-1.638;2024-03-23T10:13:32;8.43;;;1.40;;
19609;SDS011;9952;47.122;-1.638;2024-03-23T10:18:17;9.10;;;1.53;;
19609;SDS011;9952;47.122;-1.638;2024-03-23T10:22:59;7.93;;;1.03;;
19609;SDS011;9952;47.122;-1.638;2024-03-23T10:27:40;9.63;;;1.30;;
19609;SDS011;9952;47.122;-1.638;2024-03-23T10:32:23;10.57;;;1.87;;
19609;SDS011;9952;47.122;-1.638;2024-03-23T10:37:04;7.33;;;1.10;;
19609;SDS011;9952;47.122;-1.638;2024-03-23T10:41:45;7.57;;;1.33;;
19609;SDS011;9952;47.122;-1.638;2024-03-23T10:46:30;10.33;;;1.40;;
19609;SDS011;9952;47.122;-1.638;2024-03-23T10:51:11;9.80;;;1.77;;
19609;SDS011;9952;47.122;-1.638;2024-03-23T10:55:54;9.10;;;1.27;;
19609;SDS011;9952;47.122;-1.638;2024-03-23T11:00:36;7.90;;;1.37;;
19609;SDS011;9952;47.122;-1.638;2024-03-23T11:10:24;5.40;;;1.37;;
19609;SDS011;9952;47.122;-1.638;2024-03-23T11:15:10;8.93;;;1.80;;
19609;SDS011;9952;47.122;-1.638;2024-03-23T11:24:36;7.70;;;1.43;;
19609;SDS011;9952;47.122;-1.638;2024-03-23T11:29:18;5.77;;;1.30;;
19609;SDS011;9952;47.122;-1.638;2024-03-23T11:34:05;4.43;;;1.10;;
19609;SDS011;9952;47.122;-1.638;2024-03-23T11:38:46;4.87;;;1.00;;
19609;SDS011;9952;47.122;-1.638;2024-03-23T11:43:26;4.20;;;0.97;;
19609;SDS011;9952;47.122;-1.638;2024-03-23T11:48:08;5.70;;;1.00;;
19609;SDS011;9952;47.122;-1.638;2024-03-23T11:52:49;7.57;;;1.03;;
19609;SDS011;9952;47.122;-1.638;2024-03-23T11:57:30;4.77;;;1.10;;
19609;SDS011;9952;47.122;-1.638;2024-03-23T12:02:11;9.73;;;1.40;;
19609;SDS011;9952;47.122;-1.638;2024-03-23T12:11:55;5.93;;;0.90;;
19609;SDS011;9952;47.122;-1.638;2024-03-23T12:16:36;5.57;;;0.83;;
19609;SDS011;9952;47.122;-1.638;2024-03-23T12:21:17;7.57;;;1.33;;
19609;SDS011;9952;47.122;-1.638;2024-03-23T12:25:58;7.23;;;1.60;;
19609;SDS011;9952;47.122;-1.638;2024-03-23T12:30:39;12.07;;;1.40;;
19609;SDS011;9952;47.122;-1.638;2024-03-23T12:35:20;9.40;;;1.17;;
19609;SDS011;9952;47.122;-1.638;2024-03-23T12:40:01;6.00;;;1.20;;
19609;SDS011;9952;47.122;-1.638;2024-03-23T12:44:41;4.70;;;1.10;;
19609;SDS011;9952;47.122;-1.638;2024-03-23T12:49:22;7.63;;;1.33;;
19609;SDS011;9952;47.122;-1.638;2024-03-23T12:54:03;5.03;;;1.63;;
19609;SDS011;9952;47.122;-1.638;2024-03-23T12:58:44;6.23;;;1.07;;
19609;SDS011;9952;47.122;-1.638;2024-03-23T13:03:25;4.97;;;1.43;;
19609;SDS011;9952;47.122;-1.638;2024-03-23T13:08:05;8.37;;;0.80;;
19609;SDS011;9952;47.122;-1.638;2024-03-23T13:12:46;5.77;;;1.13;;
19609;SDS011;9952;47.122;-1.638;2024-03-23T13:17:27;7.30;;;1.10;;
19609;SDS011;9952;47.122;-1.638;2024-03-23T13:22:08;2.80;;;0.60;;
19609;SDS011;9952;47.122;-1.638;2024-03-23T13:26:52;4.17;;;0.70;;
19609;SDS011;9952;47.122;-1.638;2024-03-23T13:31:33;2.37;;;0.57;;
19609;SDS011;9952;47.122;-1.638;2024-03-23T13:36:14;4.47;;;0.80;;
19609;SDS011;9952;47.122;-1.638;2024-03-23T13:40:58;6.17;;;0.70;;
19609;SDS011;9952;47.122;-1.638;2024-03-23T13:45:40;4.07;;;0.60;;
19609;SDS011;9952;47.122;-1.638;2024-03-23T13:50:20;3.20;;;0.90;;
19609;SDS011;9952;47.122;-1.638;2024-03-23T13:55:01;3.77;;;0.80;;
19609;SDS011;9952;47.122;-1.638;2024-03-23T13:59:42;4.93;;;0.83;;
19609;SDS011;9952;47.122;-1.638;2024-03-23T14:04:23;5.57;;;0.60;;
19609;SDS011;9952;47.122;-1.638;2024-03-23T14:09:08;5.87;;;0.70;;
19609;SDS011;9952;47.122;-1.638;2024-03-23T14:13:48;5.07;;;0.60;;
19609;SDS011;9952;47.122;-1.638;2024-03-23T14:18:29;6.97;;;1.00;;
19609;SDS011;9952;47.122;-1.638;2024-03-23T14:23:10;5.00;;;0.80;;
19609;SDS011;9952;47.122;-1.638;2024-03-23T14:27:50;7.60;;;1.63;;
19609;SDS011;9952;47.122;-1.638;2024-03-23T14:32:31;5.17;;;1.07;;
19609;SDS011;9952;47.122;-1.638;2024-03-23T14:37:14;4.90;;;0.90;;
19609;SDS011;9952;47.122;-1.638;2024-03-23T14:41:55;7.17;;;1.83;;
19609;SDS011;9952;47.122;-1.638;2024-03-23T14:46:36;6.10;;;0.73;;
19609;SDS011;9952;47.122;-1.638;2024-03-23T14:51:17;4.87;;;0.93;;
19609;SDS011;9952;47.122;-1.638;2024-03-23T14:55:58;7.90;;;1.07;;
19609;SDS011;9952;47.122;-1.638;2024-03-23T15:00:42;9.77;;;1.10;;
19609;SDS011;9952;47.122;-1.638;2024-03-23T15:05:23;7.63;;;1.20;;
19609;SDS011;9952;47.122;-1.638;2024-03-23T15:10:04;8.20;;;1.20;;
19609;SDS011;9952;47.122;-1.638;2024-03-23T15:14:46;7.20;;;1.33;;
19609;SDS011;9952;47.122;-1.638;2024-03-23T15:19:27;6.33;;;0.97;;
19609;SDS011;9952;47.122;-1.638;2024-03-23T15:24:09;4.83;;;0.80;;
19609;SDS011;9952;47.122;-1.638;2024-03-23T15:28:50;7.67;;;0.90;;
19609;SDS011;9952;47.122;-1.638;2024-03-23T15:33:37;9.97;;;1.00;;
19609;SDS011;9952;47.122;-1.638;2024-03-23T15:38:19;9.93;;;1.30;;
19609;SDS011;9952;47.122;-1.638;2024-03-23T15:43:00;9.17;;;1.50;;
19609;SDS011;9952;47.122;-1.638;2024-03-23T15:47:40;10.20;;;1.43;;
19609;SDS011;9952;47.122;-1.638;2024-03-23T15:52:21;7.97;;;1.10;;
19609;SDS011;9952;47.122;-1.638;2024-03-23T15:57:02;6.47;;;1.03;;
19609;SDS011;9952;47.122;-1.638;2024-03-23T16:01:42;8.73;;;1.47;;
19609;SDS011;9952;47.122;-1.638;2024-03-23T16:06:25;9.57;;;1.03;;
19609;SDS011;9952;47.122;-1.638;2024-03-23T16:11:06;7.17;;;1.30;;
19609;SDS011;9952;47.122;-1.638;2024-03-23T16:15:54;7.33;;;1.60;;
19609;SDS011;9952;47.122;-1.638;2024-03-23T16:20:36;9.07;;;1.10;;
19609;SDS011;9952;47.122;-1.638;2024-03-23T16:25:16;10.40;;;1.27;;
19609;SDS011;9952;47.122;-1.638;2024-03-23T16:29:57;7.30;;;1.00;;
19609;SDS011;9952;47.122;-1.638;2024-03-23T16:34:38;17.13;;;1.83;;
19609;SDS011;9952;47.122;-1.638;2024-03-23T16:39:19;12.40;;;1.30;;
19609;SDS011;9952;47.122;-1.638;2024-03-23T16:43:59;9.43;;;1.20;;
19609;SDS011;9952;47.122;-1.638;2024-03-23T16:48:43;9.20;;;1.53;;
19609;SDS011;9952;47.122;-1.638;2024-03-23T16:53:24;9.20;;;1.30;;
19609;SDS011;9952;47.122;-1.638;2024-03-23T16:58:05;6.37;;;1.50;;
19609;SDS011;9952;47.122;-1.638;2024-03-23T17:02:46;5.40;;;0.90;;
19609;SDS011;9952;47.122;-1.638;2024-03-23T17:07:27;12.17;;;1.33;;
19609;SDS011;9952;47.122;-1.638;2024-03-23T17:12:08;7.37;;;1.43;;
19609;SDS011;9952;47.122;-1.638;2024-03-23T17:16:48;16.77;;;2.57;;
19609;SDS011;9952;47.122;-1.638;2024-03-23T17:21:31;12.70;;;1.40;;
19609;SDS011;9952;47.122;-1.638;2024-03-23T17:26:13;10.83;;;1.40;;
19609;SDS011;9952;47.122;-1.638;2024-03-23T17:30:55;11.97;;;1.27;;
19609;SDS011;9952;47.122;-1.638;2024-03-23T17:35:36;12.23;;;1.33;;
19609;SDS011;9952;47.122;-1.638;2024-03-23T17:40:17;13.07;;;2.67;;
19609;SDS011;9952;47.122;-1.638;2024-03-23T17:44:57;17.70;;;2.30;;
19609;SDS011;9952;47.122;-1.638;2024-03-23T17:49:38;9.20;;;1.37;;
19609;SDS011;9952;47.122;-1.638;2024-03-23T17:54:19;11.50;;;1.50;;
19609;SDS011;9952;47.122;-1.638;2024-03-23T17:58:59;10.63;;;1.30;;
19609;SDS011;9952;47.122;-1.638;2024-03-23T18:03:40;14.47;;;1.47;;
19609;SDS011;9952;47.122;-1.638;2024-03-23T18:08:21;11.53;;;1.63;;
19609;SDS011;9952;47.122;-1.638;2024-03-23T18:13:01;12.50;;;2.10;;
19609;SDS011;9952;47.122;-1.638;2024-03-23T18:17:42;16.10;;;2.07;;
19609;SDS011;9952;47.122;-1.638;2024-03-23T18:22:23;13.47;;;1.70;;
19609;SDS011;9952;47.122;-1.638;2024-03-23T18:27:04;14.73;;;1.40;;
19609;SDS011;9952;47.122;-1.638;2024-03-23T18:31:44;18.47;;;2.47;;
19609;SDS011;9952;47.122;-1.638;2024-03-23T18:36:25;9.73;;;2.23;;
19609;SDS011;9952;47.122;-1.638;2024-03-23T18:41:06;10.07;;;1.57;;
19609;SDS011;9952;47.122;-1.638;2024-03-23T18:45:48;14.70;;;1.43;;
19609;SDS011;9952;47.122;-1.638;2024-03-23T18:50:29;11.47;;;1.60;;
19609;SDS011;9952;47.122;-1.638;2024-03-23T18:55:10;12.70;;;1.53;;
19609;SDS011;9952;47.122;-1.638;2024-03-23T18:59:50;14.60;;;1.83;;
19609;SDS011;9952;47.122;-1.638;2024-03-23T19:04:31;20.90;;;2.17;;
19609;SDS011;9952;47.122;-1.638;2024-03-23T19:09:12;8.47;;;1.97;;
19609;SDS011;9952;47.122;-1.638;2024-03-23T19:13:52;16.30;;;2.83;;
19609;SDS011;9952;47.122;-1.638;2024-03-23T19:18:34;17.00;;;2.67;;
19609;SDS011;9952;47.122;-1.638;2024-03-23T19:23:15;12.63;;;1.33;;
19609;SDS011;9952;47.122;-1.638;2024-03-23T19:27:59;14.37;;;1.60;;
19609;SDS011;9952;47.122;-1.638;2024-03-23T19:32:41;18.93;;;1.83;;
19609;SDS011;9952;47.122;-1.638;2024-03-23T19:37:22;13.63;;;1.60;;
19609;SDS011;9952;47.122;-1.638;2024-03-23T19:42:03;14.00;;;1.73;;
19609;SDS011;9952;47.122;-1.638;2024-03-23T19:46:44;12.30;;;1.87;;
19609;SDS011;9952;47.122;-1.638;2024-03-23T19:51:24;12.30;;;1.87;;
19609;SDS011;9952;47.122;-1.638;2024-03-23T19:56:05;6.83;;;1.40;;
19609;SDS011;9952;47.122;-1.638;2024-03-23T20:00:49;14.83;;;2.10;;
19609;SDS011;9952;47.122;-1.638;2024-03-23T20:05:30;15.03;;;1.97;;
19609;SDS011;9952;47.122;-1.638;2024-03-23T20:10:11;11.23;;;1.60;;
19609;SDS011;9952;47.122;-1.638;2024-03-23T20:14:52;10.07;;;1.70;;
19609;SDS011;9952;47.122;-1.638;2024-03-23T20:19:34;11.40;;;1.50;;
19609;SDS011;9952;47.122;-1.638;2024-03-23T20:24:14;9.40;;;1.57;;
19609;SDS011;9952;47.122;-1.638;2024-03-23T20:28:55;8.87;;;1.73;;
19609;SDS011;9952;47.122;-1.638;2024-03-23T20:33:36;7.90;;;1.53;;
19609;SDS011;9952;47.122;-1.638;2024-03-23T20:38:16;11.50;;;1.53;;
19609;SDS011;9952;47.122;-1.638;2024-03-23T20:43:06;9.07;;;1.70;;
19609;SDS011;9952;47.122;-1.638;2024-03-23T20:47:49;3.37;;;1.10;;
19609;SDS011;9952;47.122;-1.638;2024-03-23T20:52:29;10.93;;;1.77;;
19609;SDS011;9952;47.122;-1.638;2024-03-23T20:57:10;15.10;;;3.50;;
19609;SDS011;9952;47.122;-1.638;2024-03-23T21:01:51;10.30;;;2.03;;
19609;SDS011;9952;47.122;-1.638;2024-03-23T21:06:31;8.40;;;0.90;;
19609;SDS011;9952;47.122;-1.638;2024-03-23T21:11:13;7.23;;;0.97;;
19609;SDS011;9952;47.122;-1.638;2024-03-23T21:15:54;7.17;;;1.30;;
19609;SDS011;9952;47.122;-1.638;2024-03-23T21:20:41;6.63;;;1.20;;
19609;SDS011;9952;47.122;-1.638;2024-03-23T21:25:22;7.07;;;1.30;;
19609;SDS011;9952;47.122;-1.638;2024-03-23T21:30:03;7.63;;;0.90;;
19609;SDS011;9952;47.122;-1.638;2024-03-23T21:34:45;8.10;;;1.13;;
19609;SDS011;9952;47.122;-1.638;2024-03-23T21:39:25;6.10;;;1.30;;
19609;SDS011;9952;47.122;-1.638;2024-03-23T21:44:06;6.87;;;1.10;;
19609;SDS011;9952;47.122;-1.638;2024-03-23T21:48:47;5.97;;;1.40;;
19609;SDS011;9952;47.122;-1.638;2024-03-23T21:53:29;8.27;;;1.37;;
19609;SDS011;9952;47.122;-1.638;2024-03-23T21:58:10;5.97;;;1.10;;
19609;SDS011;9952;47.122;-1.638;2024-03-23T22:02:50;3.83;;;0.90;;
19609;SDS011;9952;47.122;-1.638;2024-03-23T22:07:31;9.67;;;1.37;;
19609;SDS011;9952;47.122;-1.638;2024-03-23T22:12:12;6.97;;;1.00;;
19609;SDS011;9952;47.122;-1.638;2024-03-23T22:16:53;6.13;;;1.40;;
19609;SDS011;9952;47.122;-1.638;2024-03-23T22:21:33;8.90;;;1.40;;
19609;SDS011;9952;47.122;-1.638;2024-03-23T22:26:14;13.17;;;1.30;;
19609;SDS011;9952;47.122;-1.638;2024-03-23T22:30:55;11.47;;;2.10;;
19609;SDS011;9952;47.122;-1.638;2024-03-23T22:35:36;12.63;;;1.90;;
19609;SDS011;9952;47.122;-1.638;2024-03-23T22:40:17;7.33;;;1.17;;
19609;SDS011;9952;47.122;-1.638;2024-03-23T22:44:58;6.30;;;1.17;;
19609;SDS011;9952;47.122;-1.638;2024-03-23T22:49:39;9.00;;;2.03;;
19609;SDS011;9952;47.122;-1.638;2024-03-23T22:54:20;7.60;;;1.30;;
19609;SDS011;9952;47.122;-1.638;2024-03-23T22:59:00;11.33;;;2.03;;
19609;SDS011;9952;47.122;-1.638;2024-03-23T23:03:41;10.37;;;1.30;;
19609;SDS011;9952;47.122;-1.638;2024-03-23T23:08:22;9.77;;;1.37;;
19609;SDS011;9952;47.122;-1.638;2024-03-23T23:13:03;16.83;;;2.53;;
19609;SDS011;9952;47.122;-1.638;2024-03-23T23:17:46;13.27;;;1.10;;
19609;SDS011;9952;47.122;-1.638;2024-03-23T23:22:28;12.90;;;1.43;;
19609;SDS011;9952;47.122;-1.638;2024-03-23T23:27:08;11.93;;;1.73;;
19609;SDS011;9952;47.122;-1.638;2024-03-23T23:31:49;12.50;;;1.93;;
19609;SDS011;9952;47.122;-1.638;2024-03-23T23:36:31;11.53;;;1.80;;
19609;SDS011;9952;47.122;-1.638;2024-03-23T23:41:11;14.60;;;1.60;;
19609;SDS011;9952;47.122;-1.638;2024-03-23T23:45:52;7.60;;;1.40;;
19609;SDS011;9952;47.122;-1.638;2024-03-23T23:50:35;12.53;;;1.50;;
19609;SDS011;9952;47.122;-1.638;2024-03-23T23:55:15;11.50;;;1.47;;
19609;SDS011;9952;47.122;-1.638;2024-03-23T23:59:56;11.73;;;1.87;;
